Time;durP1;ratioP1;P1;durP2;ratioP2;P2;SDS_P1;SDS_P2;PMS_P1;PMS_P2;Temp;Humidity;BMP_temperature;BMP_pressure;BME280_temperature;BME280_humidity;BME280_pressure;Samples;Min_cycle;Max_cycle;Signal;HPM_P1;HPM_P2
2020/12/16 00:01:35;;;;;;;16.53;14.00;;;10.40;99.90;;;;;;4919596;28;20782;-69
2020/12/16 00:04:20;;;;;;;17.57;13.27;;;10.40;99.90;;;;;;4916060;29;20674;-69
2020/12/16 00:07:05;;;;;;;17.17;14.50;;;10.40;99.90;;;;;;4928345;28;20639;-70
2020/12/16 00:09:52;;;;;;;19.10;15.43;;;10.40;99.90;;;;;;4930186;28;20599;-70
2020/12/16 00:12:40;;;;;;;17.87;14.80;;;10.40;99.90;;;;;;4916299;28;20660;-69
2020/12/16 00:15:26;;;;;;;17.43;15.57;;;10.40;99.90;;;;;;4914578;28;20613;-70
2020/12/16 00:18:11;;;;;;;18.17;14.47;;;10.30;99.90;;;;;;4934906;28;20794;-69
2020/12/16 00:20:56;;;;;;;17.47;14.13;;;10.40;99.90;;;;;;4931593;28;21273;-70
2020/12/16 00:23:42;;;;;;;16.77;14.07;;;10.40;99.90;;;;;;4921235;28;20643;-70
2020/12/16 00:26:27;;;;;;;15.80;13.53;;;10.40;99.90;;;;;;4919627;29;20718;-69
2020/12/16 00:29:12;;;;;;;17.80;15.03;;;10.30;99.90;;;;;;4930988;28;20656;-70
2020/12/16 00:31:56;;;;;;;20.37;14.70;;;10.40;99.90;;;;;;4926112;28;20652;-70
2020/12/16 00:34:41;;;;;;;17.50;14.63;;;10.40;99.90;;;;;;4918672;28;20600;-70
2020/12/16 00:37:25;;;;;;;18.83;14.57;;;10.40;99.90;;;;;;4932166;28;20789;-70
2020/12/16 00:40:12;;;;;;;17.43;14.93;;;10.40;99.90;;;;;;4917218;28;20718;-70
2020/12/16 00:42:57;;;;;;;21.00;15.90;;;10.30;99.90;;;;;;4912526;29;20722;-70
2020/12/16 00:45:41;;;;;;;18.77;14.60;;;10.40;99.90;;;;;;4930475;28;20947;-70
2020/12/16 00:48:25;;;;;;;18.33;15.47;;;10.50;99.90;;;;;;4911928;28;21364;-70
2020/12/16 00:51:13;;;;;;;18.17;13.57;;;10.40;99.90;;;;;;4927639;28;21093;-70
2020/12/16 00:53:57;;;;;;;18.90;15.20;;;10.50;99.90;;;;;;4914661;28;20632;-69
2020/12/16 00:56:43;;;;;;;18.50;14.63;;;10.40;99.90;;;;;;4912694;28;20631;-70
2020/12/16 00:59:28;;;;;;;17.57;14.50;;;10.40;99.90;;;;;;4913982;29;21030;-69
2020/12/16 01:02:16;;;;;;;20.27;15.03;;;10.40;99.90;;;;;;4933913;28;20644;-69
2020/12/16 01:05:00;;;;;;;18.77;13.90;;;10.40;99.90;;;;;;4900599;29;20979;-70
2020/12/16 01:07:45;;;;;;;22.50;15.73;;;10.40;99.90;;;;;;4926634;28;21212;-69
2020/12/16 01:10:32;;;;;;;21.17;15.80;;;10.40;99.90;;;;;;4913882;28;20630;-69
2020/12/16 01:13:17;;;;;;;20.57;15.03;;;10.40;99.90;;;;;;4918305;29;20670;-69
2020/12/16 01:16:01;;;;;;;20.23;14.87;;;10.40;99.90;;;;;;4917250;28;20981;-70
2020/12/16 01:18:46;;;;;;;20.33;14.63;;;10.40;99.90;;;;;;4919455;28;20753;-69
2020/12/16 01:21:33;;;;;;;18.10;13.63;;;10.40;99.90;;;;;;4924034;28;20652;-69
2020/12/16 01:24:18;;;;;;;20.87;15.10;;;10.40;99.90;;;;;;4930054;28;20966;-70
2020/12/16 01:27:02;;;;;;;19.20;15.10;;;10.40;99.90;;;;;;4926402;28;20770;-70
2020/12/16 01:29:47;;;;;;;20.97;15.90;;;10.40;99.90;;;;;;4913616;29;20608;-70
2020/12/16 01:32:32;;;;;;;22.80;17.60;;;10.40;99.90;;;;;;4925189;28;20666;-69
2020/12/16 01:35:17;;;;;;;23.07;16.60;;;10.40;99.90;;;;;;4928218;28;20636;-69
2020/12/16 01:38:01;;;;;;;24.60;16.77;;;10.40;99.90;;;;;;4919149;28;20654;-70
2020/12/16 01:40:45;;;;;;;21.47;16.37;;;10.40;99.90;;;;;;4908979;28;20748;-70
2020/12/16 01:43:35;;;;;;;22.67;15.27;;;10.40;99.90;;;;;;4912402;28;20732;-69
2020/12/16 01:46:20;;;;;;;21.27;16.10;;;10.40;99.90;;;;;;4916948;28;20627;-69
2020/12/16 01:49:04;;;;;;;24.57;16.27;;;10.50;99.90;;;;;;4927191;28;20670;-69
2020/12/16 01:51:57;;;;;;;24.00;15.73;;;10.40;99.90;;;;;;4911145;28;20651;-69
2020/12/16 01:54:42;;;;;;;23.13;16.13;;;10.40;99.90;;;;;;4913353;28;20646;-69
2020/12/16 01:57:34;;;;;;;21.60;15.40;;;10.40;99.90;;;;;;4912193;28;20766;-70
2020/12/16 02:00:19;;;;;;;21.13;15.30;;;10.40;99.90;;;;;;4911655;28;20629;-69
2020/12/16 02:03:07;;;;;;;24.17;16.77;;;10.30;99.90;;;;;;4911717;28;20667;-69
2020/12/16 02:05:55;;;;;;;24.37;16.03;;;10.50;99.90;;;;;;4914142;28;20717;-69
2020/12/16 02:08:44;;;;;;;22.40;15.60;;;10.40;99.90;;;;;;4913335;28;20678;-70
2020/12/16 02:11:30;;;;;;;22.50;16.27;;;10.40;99.90;;;;;;4921851;28;20662;-70
2020/12/16 02:14:15;;;;;;;21.30;15.77;;;10.40;99.90;;;;;;4911091;28;20631;-69
2020/12/16 02:17:00;;;;;;;22.90;15.53;;;10.30;99.90;;;;;;4918891;29;20624;-69
2020/12/16 02:19:53;;;;;;;20.43;15.20;;;10.30;99.90;;;;;;4931628;28;20795;-70
2020/12/16 02:22:38;;;;;;;23.87;16.50;;;10.30;99.90;;;;;;4911117;28;20639;-70
2020/12/16 02:25:23;;;;;;;22.37;15.80;;;10.30;99.90;;;;;;4912116;29;20719;-69
2020/12/16 02:28:08;;;;;;;27.50;16.20;;;10.30;99.90;;;;;;4917829;29;21018;-69
2020/12/16 02:30:53;;;;;;;25.70;15.10;;;10.30;99.90;;;;;;4912986;28;20646;-69
2020/12/16 02:33:40;;;;;;;21.73;14.53;;;10.30;99.90;;;;;;4931245;28;20734;-69
2020/12/16 02:36:24;;;;;;;20.90;15.53;;;10.30;99.90;;;;;;4916922;28;21085;-69
2020/12/16 02:39:09;;;;;;;27.27;16.10;;;10.30;99.90;;;;;;4914812;28;21260;-71
2020/12/16 02:42:01;;;;;;;21.50;14.40;;;10.30;99.90;;;;;;4910831;28;20659;-71
2020/12/16 02:44:46;;;;;;;22.03;15.40;;;10.30;99.90;;;;;;4919818;28;21248;-69
2020/12/16 02:47:31;;;;;;;23.00;15.77;;;10.30;99.90;;;;;;4922501;29;21047;-70
2020/12/16 02:50:15;;;;;;;24.43;15.60;;;10.40;99.90;;;;;;4980183;23;20797;-65
2020/12/16 02:53:00;;;;;;;20.43;14.90;;;10.20;99.90;;;;;;4993302;28;20646;-65
2020/12/16 02:55:45;;;;;;;21.27;15.10;;;10.20;99.90;;;;;;4992636;28;20666;-65
2020/12/16 02:58:29;;;;;;;21.20;14.73;;;10.20;99.90;;;;;;4998060;28;20685;-65
2020/12/16 03:01:14;;;;;;;21.63;15.03;;;10.20;99.90;;;;;;4980511;28;20643;-65
2020/12/16 03:03:58;;;;;;;23.53;15.93;;;10.20;99.90;;;;;;4994173;28;20971;-65
2020/12/16 03:06:48;;;;;;;21.53;14.90;;;10.20;99.90;;;;;;4980241;28;20603;-64
2020/12/16 03:09:33;;;;;;;22.53;15.30;;;10.30;99.90;;;;;;4979548;28;20695;-65
2020/12/16 03:12:17;;;;;;;22.87;16.53;;;10.20;99.90;;;;;;4983959;28;20753;-65
2020/12/16 03:15:02;;;;;;;24.83;16.50;;;10.20;99.90;;;;;;4975594;28;21146;-65
2020/12/16 03:17:54;;;;;;;22.23;15.97;;;10.20;99.90;;;;;;4994783;28;20994;-65
2020/12/16 03:20:38;;;;;;;23.40;15.50;;;10.20;99.90;;;;;;4988780;28;20817;-66
2020/12/16 03:23:23;;;;;;;25.33;15.83;;;10.20;99.90;;;;;;4984650;28;20658;-65
2020/12/16 03:26:07;;;;;;;24.67;15.47;;;10.20;99.90;;;;;;4992871;28;20939;-65
2020/12/16 03:28:52;;;;;;;22.57;14.80;;;10.20;99.90;;;;;;4995109;28;20667;-65
2020/12/16 03:31:37;;;;;;;20.17;14.87;;;10.20;99.90;;;;;;4977961;28;20790;-66
2020/12/16 03:34:21;;;;;;;27.43;16.70;;;10.20;99.90;;;;;;4984537;28;21237;-66
2020/12/16 03:37:08;;;;;;;23.43;15.67;;;10.10;99.90;;;;;;4977344;28;21031;-65
2020/12/16 03:39:52;;;;;;;23.07;15.37;;;10.10;99.90;;;;;;4985056;28;20727;-65
2020/12/16 03:42:37;;;;;;;24.63;16.63;;;10.10;99.90;;;;;;4976786;28;20658;-66
2020/12/16 03:45:21;;;;;;;23.17;16.17;;;10.10;99.90;;;;;;4985298;28;20982;-65
2020/12/16 03:48:06;;;;;;;25.63;16.10;;;10.10;99.90;;;;;;4987147;28;20625;-64
2020/12/16 03:50:51;;;;;;;19.63;14.67;;;10.10;99.90;;;;;;4979853;28;20659;-65
2020/12/16 03:53:36;;;;;;;23.80;15.80;;;10.20;99.90;;;;;;4985183;28;20588;-64
2020/12/16 03:56:21;;;;;;;23.53;15.60;;;10.20;99.90;;;;;;4976643;28;20715;-65
2020/12/16 03:59:06;;;;;;;24.33;15.90;;;10.20;99.90;;;;;;4981872;28;20700;-65
2020/12/16 04:01:54;;;;;;;24.27;16.50;;;10.20;99.90;;;;;;4998526;28;21034;-66
2020/12/16 04:04:39;;;;;;;25.20;16.47;;;10.20;99.90;;;;;;4997194;28;20599;-64
2020/12/16 04:07:23;;;;;;;25.07;17.00;;;10.10;99.90;;;;;;4991168;28;20954;-65
2020/12/16 04:10:08;;;;;;;25.30;15.93;;;10.10;99.90;;;;;;4982768;28;20651;-66
2020/12/16 04:12:52;;;;;;;27.10;17.00;;;10.20;99.90;;;;;;4992721;28;20707;-65
2020/12/16 04:15:37;;;;;;;21.43;15.50;;;10.20;99.90;;;;;;4984476;28;21170;-67
2020/12/16 04:18:22;;;;;;;23.63;16.40;;;10.30;99.90;;;;;;4997926;28;20599;-65
2020/12/16 04:21:10;;;;;;;22.63;15.27;;;10.30;99.90;;;;;;4973013;28;21373;-65
2020/12/16 04:23:57;;;;;;;21.23;14.40;;;10.30;99.90;;;;;;4993652;28;21110;-66
2020/12/16 04:26:41;;;;;;;23.10;15.60;;;10.20;99.90;;;;;;4996030;28;21257;-65
2020/12/16 04:29:26;;;;;;;24.40;16.17;;;10.30;99.90;;;;;;4997255;28;21135;-65
2020/12/16 04:32:12;;;;;;;22.33;15.40;;;10.20;99.90;;;;;;4981627;28;20775;-65
2020/12/16 04:34:56;;;;;;;25.53;16.10;;;10.20;99.90;;;;;;4984059;28;20596;-65
2020/12/16 04:37:41;;;;;;;22.33;14.60;;;10.20;99.90;;;;;;4984905;28;20595;-66
2020/12/16 04:40:25;;;;;;;19.27;14.13;;;10.20;99.90;;;;;;4981922;28;20656;-66
2020/12/16 04:43:19;;;;;;;21.20;14.43;;;10.20;99.90;;;;;;4983631;28;20753;-65
2020/12/16 04:46:04;;;;;;;25.60;15.47;;;10.20;99.90;;;;;;4987704;28;20663;-65
2020/12/16 04:48:49;;;;;;;25.13;15.83;;;10.10;99.90;;;;;;4983484;28;20729;-65
2020/12/16 04:51:35;;;;;;;23.20;15.80;;;10.10;99.90;;;;;;4994526;28;20706;-66
2020/12/16 04:54:20;;;;;;;25.50;15.80;;;10.10;99.90;;;;;;4997559;28;20642;-65
2020/12/16 04:57:06;;;;;;;23.00;16.17;;;10.10;99.90;;;;;;4997058;28;20638;-66
2020/12/16 04:59:55;;;;;;;25.13;16.17;;;10.10;99.90;;;;;;4995318;28;21546;-64
2020/12/16 05:02:56;;;;;;;25.17;16.40;;;10.10;99.90;;;;;;4984676;28;21074;-65
2020/12/16 05:05:41;;;;;;;25.80;16.50;;;10.10;99.90;;;;;;4994312;28;20596;-65
2020/12/16 05:08:27;;;;;;;22.60;15.40;;;10.10;99.90;;;;;;4984339;28;20726;-66
2020/12/16 05:11:12;;;;;;;26.77;15.37;;;10.10;99.90;;;;;;4981888;28;20643;-65
2020/12/16 05:14:17;;;;;;;28.20;16.80;;;10.10;99.90;;;;;;4994928;28;20660;-65
2020/12/16 05:17:06;;;;;;;25.80;16.30;;;10.10;99.90;;;;;;4986667;28;20776;-65
2020/12/16 05:19:50;;;;;;;25.43;15.90;;;10.10;99.90;;;;;;4986246;28;21047;-65
2020/12/16 05:22:35;;;;;;;28.33;16.13;;;10.10;99.90;;;;;;4975347;28;20651;-66
2020/12/16 05:25:19;;;;;;;24.43;15.37;;;10.10;99.90;;;;;;4985821;28;20592;-65
2020/12/16 05:28:05;;;;;;;24.00;16.63;;;10.10;99.90;;;;;;4978986;28;21008;-66
2020/12/16 05:30:54;;;;;;;25.43;17.80;;;10.10;99.90;;;;;;4987915;28;21249;-66
2020/12/16 05:33:44;;;;;;;22.70;15.07;;;10.10;99.90;;;;;;5001107;28;21087;-66
2020/12/16 05:36:35;;;;;;;23.20;16.13;;;10.10;99.90;;;;;;5002829;28;20595;-64
2020/12/16 05:39:20;;;;;;;22.90;15.10;;;10.10;99.90;;;;;;5000224;28;20674;-64
2020/12/16 05:42:05;;;;;;;24.93;16.80;;;10.10;99.90;;;;;;4977269;28;20692;-65
2020/12/16 05:44:50;;;;;;;25.20;16.30;;;10.10;99.90;;;;;;4992439;28;20615;-65
2020/12/16 05:47:34;;;;;;;24.23;16.93;;;10.10;99.90;;;;;;4983947;28;20691;-65
2020/12/16 05:50:22;;;;;;;25.77;17.00;;;10.20;99.90;;;;;;4991317;28;20675;-65
2020/12/16 05:53:26;;;;;;;24.33;17.27;;;10.20;99.90;;;;;;4996502;28;20659;-65
2020/12/16 05:56:13;;;;;;;28.20;18.27;;;10.20;99.90;;;;;;5000810;28;20624;-65
2020/12/16 05:59:07;;;;;;;26.03;16.33;;;10.20;99.90;;;;;;4998600;28;20667;-65
2020/12/16 06:01:53;;;;;;;28.50;18.60;;;10.20;99.90;;;;;;4978659;28;20640;-66
2020/12/16 06:04:37;;;;;;;25.83;18.10;;;10.20;99.90;;;;;;4988411;28;21206;-65
2020/12/16 06:07:23;;;;;;;24.50;16.43;;;10.20;99.90;;;;;;4979854;28;20595;-65
2020/12/16 06:10:11;;;;;;;27.00;17.33;;;10.20;99.90;;;;;;4989135;28;20814;-65
2020/12/16 06:13:03;;;;;;;27.30;18.20;;;10.20;99.90;;;;;;5009164;28;20644;-64
2020/12/16 06:15:53;;;;;;;26.50;17.47;;;10.20;99.90;;;;;;5014338;28;20721;-64
2020/12/16 06:18:40;;;;;;;29.13;18.37;;;10.20;99.90;;;;;;5004595;28;20632;-65
2020/12/16 06:21:28;;;;;;;22.87;15.60;;;10.20;99.90;;;;;;4989465;28;20643;-66
2020/12/16 06:24:20;;;;;;;27.27;18.03;;;10.30;99.90;;;;;;4990762;28;20615;-65
2020/12/16 06:27:10;;;;;;;26.67;17.27;;;10.20;99.90;;;;;;5011751;28;20959;-71
2020/12/16 06:30:02;;;;;;;29.33;19.37;;;10.20;99.90;;;;;;5003058;28;20655;-65
2020/12/16 06:32:55;;;;;;;26.53;17.93;;;10.30;99.90;;;;;;5001898;28;20824;-66
2020/12/16 06:35:40;;;;;;;30.73;20.63;;;10.20;99.90;;;;;;4997680;28;20598;-65
2020/12/16 06:38:25;;;;;;;30.00;19.70;;;10.30;99.90;;;;;;4998357;28;20758;-65
2020/12/16 06:41:18;;;;;;;29.10;19.47;;;10.30;99.90;;;;;;5006686;28;20627;-65
2020/12/16 06:44:11;;;;;;;32.43;22.13;;;10.30;99.90;;;;;;5001879;28;20956;-65
2020/12/16 06:46:58;;;;;;;30.30;21.27;;;10.30;99.90;;;;;;5014257;28;20961;-65
2020/12/16 06:49:43;;;;;;;32.53;21.10;;;10.30;99.90;;;;;;4997342;28;20674;-66
2020/12/16 06:52:28;;;;;;;29.97;19.90;;;10.30;99.90;;;;;;5000593;28;20797;-65
2020/12/16 06:55:13;;;;;;;31.60;21.20;;;10.30;99.90;;;;;;5000731;28;20595;-65
2020/12/16 06:57:57;;;;;;;37.20;21.90;;;10.30;99.90;;;;;;5002183;28;20668;-66
2020/12/16 07:00:42;;;;;;;33.80;21.60;;;10.30;99.90;;;;;;5006288;28;20817;-64
2020/12/16 07:03:32;;;;;;;34.90;22.93;;;10.30;99.90;;;;;;5007538;28;20587;-66
2020/12/16 07:06:28;;;;;;;36.00;21.73;;;10.30;99.90;;;;;;5006948;28;20611;-65
2020/12/16 07:09:20;;;;;;;32.83;22.47;;;10.30;99.90;;;;;;5008361;28;20793;-65
2020/12/16 07:12:05;;;;;;;32.30;21.60;;;10.30;99.90;;;;;;5014060;28;20716;-65
2020/12/16 07:14:49;;;;;;;33.80;22.90;;;10.30;99.90;;;;;;5015214;28;20615;-65
2020/12/16 07:17:34;;;;;;;35.30;22.87;;;10.30;99.90;;;;;;5001641;28;20591;-65
2020/12/16 07:20:31;;;;;;;32.10;20.77;;;10.30;99.90;;;;;;4998597;28;20636;-65
2020/12/16 07:23:17;;;;;;;35.17;23.23;;;10.30;99.90;;;;;;5003975;28;21004;-65
2020/12/16 07:26:02;;;;;;;33.20;20.90;;;10.30;99.90;;;;;;5006261;28;20572;-65
2020/12/16 07:28:47;;;;;;;34.60;22.83;;;10.30;99.90;;;;;;5002167;28;20634;-65
2020/12/16 07:31:32;;;;;;;33.90;21.80;;;10.30;99.90;;;;;;4991942;28;20747;-65
2020/12/16 07:34:16;;;;;;;35.03;22.90;;;10.30;99.90;;;;;;5014522;28;20599;-65
2020/12/16 07:37:03;;;;;;;33.40;22.10;;;10.30;99.90;;;;;;4994494;28;20700;-65
2020/12/16 07:39:52;;;;;;;34.40;21.50;;;10.30;99.90;;;;;;4999777;28;20717;-65
2020/12/16 07:42:37;;;;;;;34.17;21.40;;;10.30;99.90;;;;;;4990432;28;20817;-65
2020/12/16 07:45:21;;;;;;;31.87;21.50;;;10.30;99.90;;;;;;5003000;28;20612;-65
2020/12/16 07:48:08;;;;;;;30.93;20.10;;;10.30;99.90;;;;;;5001731;28;20651;-65
2020/12/16 07:50:59;;;;;;;33.50;22.17;;;10.30;99.90;;;;;;5009578;28;20635;-63
2020/12/16 07:53:47;;;;;;;35.70;22.27;;;10.30;99.90;;;;;;5014202;28;20664;-65
2020/12/16 07:56:31;;;;;;;37.30;22.43;;;10.30;99.90;;;;;;5014021;28;20663;-65
2020/12/16 07:59:16;;;;;;;37.00;21.50;;;10.30;99.90;;;;;;5005123;28;20647;-65
2020/12/16 08:02:10;;;;;;;31.67;20.67;;;10.30;99.90;;;;;;4996679;28;20647;-64
2020/12/16 08:05:02;;;;;;;31.13;19.80;;;10.30;99.90;;;;;;5006232;28;21086;-64
2020/12/16 08:07:50;;;;;;;33.67;22.27;;;10.30;99.90;;;;;;5010210;28;21024;-65
2020/12/16 08:10:35;;;;;;;34.47;21.87;;;10.30;99.90;;;;;;5002385;28;21289;-65
2020/12/16 08:13:27;;;;;;;32.67;20.80;;;10.30;99.90;;;;;;5017982;28;21205;-65
2020/12/16 08:16:12;;;;;;;32.13;19.80;;;10.20;99.90;;;;;;5002112;28;20708;-64
2020/12/16 08:18:59;;;;;;;33.30;20.37;;;10.30;99.90;;;;;;5005014;28;20674;-64
2020/12/16 08:21:43;;;;;;;30.40;19.60;;;10.30;99.90;;;;;;4996529;28;20647;-65
2020/12/16 08:24:28;;;;;;;29.37;18.63;;;10.20;99.90;;;;;;4986860;28;20599;-65
2020/12/16 08:27:17;;;;;;;32.47;19.10;;;10.10;99.90;;;;;;4998880;28;20604;-65
2020/12/16 08:30:04;;;;;;;29.03;19.80;;;10.10;99.90;;;;;;5014888;28;21124;-65
2020/12/16 08:32:55;;;;;;;27.50;18.20;;;10.10;99.90;;;;;;5014136;28;20638;-65
2020/12/16 08:36:05;;;;;;;30.90;19.30;;;10.10;99.90;;;;;;5002758;28;20702;-64
2020/12/16 08:38:53;;;;;;;34.13;20.70;;;10.10;99.90;;;;;;5013141;28;20722;-65
2020/12/16 08:41:43;;;;;;;31.10;20.57;;;10.00;99.90;;;;;;5011401;28;20644;-64
2020/12/16 08:44:30;;;;;;;28.63;19.00;;;10.00;99.90;;;;;;5003861;28;20604;-65
2020/12/16 08:47:25;;;;;;;29.67;19.23;;;9.90;99.90;;;;;;4995835;28;20626;-65
2020/12/16 08:50:16;;;;;;;30.07;20.93;;;9.80;99.90;;;;;;5022818;22;20711;-70
2020/12/16 08:53:01;;;;;;;29.73;19.60;;;9.70;99.90;;;;;;4984654;28;20629;-70
2020/12/16 08:55:45;;;;;;;32.93;21.00;;;9.60;99.90;;;;;;4983660;28;21113;-70
2020/12/16 08:58:30;;;;;;;33.57;20.37;;;9.50;99.90;;;;;;4981392;28;20620;-70
2020/12/16 09:01:22;;;;;;;34.70;20.30;;;9.60;99.90;;;;;;4957224;28;21292;-69
2020/12/16 09:04:08;;;;;;;35.70;20.23;;;9.50;99.90;;;;;;4957532;28;20673;-70
2020/12/16 09:07:13;;;;;;;34.10;21.23;;;9.50;99.90;;;;;;4963099;28;20669;-69
2020/12/16 09:09:58;;;;;;;32.80;18.97;;;9.50;99.90;;;;;;4974745;28;21040;-69
2020/12/16 09:12:45;;;;;;;32.50;21.40;;;9.50;99.90;;;;;;4978143;28;20632;-70
2020/12/16 09:15:29;;;;;;;32.77;20.10;;;9.40;99.90;;;;;;4961499;28;20689;-69
2020/12/16 09:18:14;;;;;;;31.10;19.43;;;9.50;99.90;;;;;;4969614;28;21148;-70
2020/12/16 09:20:58;;;;;;;33.97;20.10;;;9.50;99.90;;;;;;4953539;28;21490;-70
2020/12/16 09:23:44;;;;;;;39.60;21.63;;;9.50;99.90;;;;;;4964102;28;21210;-70
2020/12/16 09:26:43;;;;;;;33.90;21.40;;;9.60;99.90;;;;;;4969279;28;20600;-69
2020/12/16 09:29:29;;;;;;;36.77;21.77;;;9.60;99.90;;;;;;4964276;28;21299;-70
2020/12/16 09:32:24;;;;;;;37.70;22.93;;;9.50;99.90;;;;;;4967977;28;21199;-71
2020/12/16 09:35:10;;;;;;;35.77;21.70;;;9.40;99.90;;;;;;4976717;28;20945;-71
2020/12/16 09:37:54;;;;;;;33.73;20.57;;;9.40;99.90;;;;;;4963940;28;20689;-71
2020/12/16 09:40:39;;;;;;;37.80;22.40;;;9.30;99.90;;;;;;4965845;28;21085;-71
2020/12/16 09:43:38;;;;;;;37.30;23.03;;;9.30;99.90;;;;;;4990052;28;20660;-71
2020/12/16 09:46:24;;;;;;;36.67;22.47;;;9.20;99.90;;;;;;4963456;28;20951;-70
2020/12/16 09:49:09;;;;;;;41.40;23.37;;;9.20;99.90;;;;;;4968490;28;20676;-70
2020/12/16 09:51:53;;;;;;;46.40;24.07;;;9.20;99.90;;;;;;4960185;28;20641;-70
2020/12/16 09:54:37;;;;;;;36.93;22.33;;;9.30;99.90;;;;;;4981223;28;20609;-70
2020/12/16 09:57:23;;;;;;;41.90;23.53;;;9.30;99.90;;;;;;4962023;28;20663;-70
2020/12/16 10:00:11;;;;;;;36.03;20.17;;;9.30;99.90;;;;;;4986606;28;20675;-71
2020/12/16 10:03:04;;;;;;;35.20;21.60;;;9.20;99.90;;;;;;4968804;28;20649;-71
2020/12/16 10:05:49;;;;;;;37.90;21.53;;;9.20;99.90;;;;;;4974280;28;21211;-71
2020/12/16 10:08:33;;;;;;;39.90;22.03;;;9.10;99.90;;;;;;4969924;28;21141;-71
2020/12/16 10:11:17;;;;;;;39.63;23.13;;;9.20;99.90;;;;;;4960315;28;20640;-70
2020/12/16 10:14:02;;;;;;;39.00;21.70;;;9.20;99.90;;;;;;4972819;28;20961;-71
2020/12/16 10:16:47;;;;;;;39.57;23.97;;;9.30;99.90;;;;;;4964867;28;20649;-71
2020/12/16 10:19:34;;;;;;;36.17;21.20;;;9.30;99.90;;;;;;4980458;28;21047;-71
2020/12/16 10:22:18;;;;;;;35.77;19.60;;;9.30;99.90;;;;;;4968350;28;20696;-72
2020/12/16 10:25:05;;;;;;;33.90;18.33;;;9.30;99.90;;;;;;4985771;28;20600;-71
2020/12/16 10:27:49;;;;;;;34.47;19.33;;;9.20;99.90;;;;;;4973411;28;20602;-71
2020/12/16 10:30:34;;;;;;;35.67;20.10;;;9.20;99.90;;;;;;4982638;28;20755;-70
2020/12/16 10:33:19;;;;;;;33.50;18.37;;;9.20;99.90;;;;;;4970559;28;20679;-71
2020/12/16 10:36:05;;;;;;;28.10;17.90;;;9.20;99.90;;;;;;4980668;28;20728;-71
2020/12/16 10:38:50;;;;;;;31.20;18.57;;;9.20;99.90;;;;;;4969154;28;20629;-71
2020/12/16 10:41:35;;;;;;;31.57;17.90;;;9.10;99.90;;;;;;4974935;28;21282;-70
2020/12/16 10:44:22;;;;;;;34.37;18.90;;;9.10;99.90;;;;;;4982642;28;20601;-71
2020/12/16 10:47:07;;;;;;;33.57;19.13;;;9.10;99.90;;;;;;4985868;28;20632;-71
2020/12/16 10:49:53;;;;;;;32.83;19.53;;;9.10;99.90;;;;;;4985938;28;20668;-70
2020/12/16 10:52:38;;;;;;;36.70;20.47;;;9.10;99.90;;;;;;4968687;28;20641;-70
2020/12/16 10:55:23;;;;;;;40.67;22.30;;;9.20;99.90;;;;;;4962265;28;20967;-71
2020/12/16 10:58:08;;;;;;;36.83;20.20;;;9.20;99.90;;;;;;4982079;28;20621;-71
2020/12/16 11:00:53;;;;;;;46.10;22.00;;;9.10;99.90;;;;;;4961356;28;21259;-70
2020/12/16 11:03:37;;;;;;;41.67;22.00;;;9.20;99.90;;;;;;4981121;28;20962;-71
2020/12/16 11:06:22;;;;;;;37.27;21.10;;;9.20;99.90;;;;;;4981455;28;20629;-70
2020/12/16 11:09:06;;;;;;;31.97;19.67;;;9.30;99.90;;;;;;4979589;28;20668;-70
2020/12/16 11:11:54;;;;;;;30.33;17.80;;;9.30;99.90;;;;;;4981709;28;20697;-69
2020/12/16 11:14:39;;;;;;;27.60;17.10;;;9.30;99.90;;;;;;4963940;28;20990;-70
2020/12/16 11:17:23;;;;;;;28.30;16.00;;;9.10;99.90;;;;;;4982504;28;20620;-70
2020/12/16 11:20:09;;;;;;;30.77;17.73;;;9.00;99.90;;;;;;4982574;28;20672;-70
2020/12/16 11:22:53;;;;;;;28.10;17.00;;;9.00;99.90;;;;;;4978984;28;21001;-70
2020/12/16 11:25:38;;;;;;;31.20;15.77;;;8.90;99.90;;;;;;4978437;28;20593;-69
2020/12/16 11:28:22;;;;;;;31.20;17.90;;;9.00;99.90;;;;;;4978450;28;20598;-68
2020/12/16 11:31:06;;;;;;;37.03;18.67;;;9.00;99.90;;;;;;4961784;28;20688;-70
2020/12/16 11:33:51;;;;;;;37.47;18.60;;;9.00;99.90;;;;;;4957306;28;21382;-69
2020/12/16 11:36:39;;;;;;;34.83;18.47;;;8.90;99.90;;;;;;4967155;28;20708;-68
2020/12/16 11:39:25;;;;;;;36.90;20.13;;;8.90;99.90;;;;;;4978238;28;20647;-69
2020/12/16 11:42:09;;;;;;;36.80;19.93;;;8.90;99.90;;;;;;4978279;28;20641;-69
2020/12/16 11:44:54;;;;;;;35.23;18.43;;;8.90;99.90;;;;;;4979132;28;20785;-70
2020/12/16 11:47:39;;;;;;;36.07;19.50;;;8.90;99.90;;;;;;4976011;28;20633;-70
2020/12/16 11:50:28;;;;;;;38.00;19.40;;;9.00;99.90;;;;;;4966920;28;20833;-71
2020/12/16 11:53:12;;;;;;;34.40;18.97;;;8.90;99.90;;;;;;4969031;28;20809;-70
2020/12/16 11:55:59;;;;;;;35.70;17.73;;;9.00;99.90;;;;;;4975495;28;20588;-71
2020/12/16 11:58:44;;;;;;;39.87;18.80;;;9.00;99.90;;;;;;4962104;28;20618;-73
2020/12/16 12:01:29;;;;;;;34.03;17.90;;;9.00;99.90;;;;;;4966327;28;20657;-77
2020/12/16 12:04:14;;;;;;;37.97;19.60;;;9.00;99.90;;;;;;4964981;28;20743;-69
2020/12/16 12:06:58;;;;;;;35.73;18.07;;;9.00;99.90;;;;;;4967302;28;21187;-70
2020/12/16 12:09:43;;;;;;;35.83;17.30;;;9.00;99.90;;;;;;4978305;28;20676;-71
2020/12/16 12:12:29;;;;;;;39.60;19.50;;;9.10;99.90;;;;;;4978447;28;20649;-71
2020/12/16 12:15:14;;;;;;;35.50;17.67;;;9.10;99.90;;;;;;4978232;28;20977;-71
2020/12/16 12:17:58;;;;;;;38.30;18.90;;;9.00;99.90;;;;;;4981628;28;20708;-72
2020/12/16 12:20:44;;;;;;;35.70;18.17;;;9.10;99.90;;;;;;4966859;28;20665;-71
2020/12/16 12:23:28;;;;;;;32.00;16.50;;;9.10;99.90;;;;;;4980286;28;20982;-71
2020/12/16 12:26:13;;;;;;;34.73;18.50;;;9.20;99.90;;;;;;4983368;28;20629;-70
2020/12/16 12:28:57;;;;;;;36.20;17.60;;;9.20;99.90;;;;;;4977637;28;20632;-71
2020/12/16 12:31:43;;;;;;;40.30;18.97;;;9.20;99.90;;;;;;4953943;28;20642;-70
2020/12/16 12:34:28;;;;;;;35.80;19.37;;;9.20;99.90;;;;;;4979256;28;20625;-71
2020/12/16 12:37:12;;;;;;;34.83;17.57;;;9.20;99.90;;;;;;4978518;28;20633;-71
2020/12/16 12:39:57;;;;;;;38.13;19.90;;;9.20;99.90;;;;;;4969215;28;20740;-71
2020/12/16 12:42:41;;;;;;;35.73;20.67;;;9.10;99.90;;;;;;4969331;28;20653;-71
2020/12/16 12:45:26;;;;;;;35.27;18.33;;;9.10;99.90;;;;;;4982453;28;20645;-71
2020/12/16 12:48:11;;;;;;;35.70;18.60;;;9.10;99.90;;;;;;4976823;28;20602;-70
2020/12/16 12:50:56;;;;;;;37.27;19.90;;;9.20;99.90;;;;;;4972594;28;21192;-70
2020/12/16 12:53:41;;;;;;;38.13;20.43;;;9.20;99.90;;;;;;4988207;28;20608;-71
2020/12/16 12:56:28;;;;;;;38.60;20.40;;;9.20;99.90;;;;;;4962237;28;20728;-70
2020/12/16 12:59:13;;;;;;;42.00;20.67;;;9.20;99.90;;;;;;4965619;28;20700;-70
2020/12/16 13:01:57;;;;;;;39.67;21.97;;;9.20;99.90;;;;;;4974155;28;20672;-69
2020/12/16 13:04:42;;;;;;;42.27;21.60;;;9.30;99.90;;;;;;4976262;28;20912;-71
2020/12/16 13:07:26;;;;;;;40.33;23.63;;;9.40;99.90;;;;;;4974412;28;20636;-70
2020/12/16 13:10:11;;;;;;;43.23;23.13;;;9.40;99.90;;;;;;4975838;28;20867;-69
2020/12/16 13:12:56;;;;;;;45.57;24.17;;;9.40;99.90;;;;;;4962801;28;20668;-70
2020/12/16 13:15:40;;;;;;;44.10;23.50;;;9.40;99.90;;;;;;4973393;28;21199;-70
2020/12/16 13:18:25;;;;;;;37.87;22.73;;;9.40;99.90;;;;;;4974936;28;22140;-70
2020/12/16 13:21:12;;;;;;;42.10;23.70;;;9.40;99.90;;;;;;4970055;28;20636;-70
2020/12/16 13:23:56;;;;;;;38.90;22.00;;;9.40;99.90;;;;;;4972600;28;20605;-70
2020/12/16 13:26:47;;;;;;;41.47;21.50;;;9.40;99.90;;;;;;4962514;28;20605;-70
2020/12/16 13:29:32;;;;;;;33.13;20.20;;;9.40;99.90;;;;;;4964679;28;20748;-70
2020/12/16 13:32:17;;;;;;;40.90;22.30;;;9.50;99.90;;;;;;4972713;28;21101;-70
2020/12/16 13:35:01;;;;;;;38.60;20.50;;;9.50;99.90;;;;;;4971474;28;20717;-70
2020/12/16 13:37:51;;;;;;;35.93;19.33;;;9.50;99.90;;;;;;4974729;28;20648;-70
2020/12/16 13:40:36;;;;;;;32.03;18.50;;;9.50;99.90;;;;;;4959969;28;21074;-70
2020/12/16 13:43:21;;;;;;;31.73;17.60;;;9.50;99.90;;;;;;4978761;28;20718;-71
2020/12/16 13:46:05;;;;;;;29.97;17.47;;;9.50;99.90;;;;;;4976514;28;20597;-69
2020/12/16 13:48:50;;;;;;;34.67;19.20;;;9.50;99.90;;;;;;4967812;28;20637;-71
2020/12/16 13:51:35;;;;;;;32.60;18.60;;;9.50;99.90;;;;;;4973387;28;20642;-70
2020/12/16 13:54:19;;;;;;;34.57;17.73;;;9.40;99.90;;;;;;4974736;28;20784;-70
2020/12/16 13:57:03;;;;;;;30.27;17.37;;;9.30;99.90;;;;;;4968944;28;20606;-70
2020/12/16 13:59:48;;;;;;;26.70;16.57;;;9.30;99.90;;;;;;4973735;28;20788;-71
2020/12/16 14:02:32;;;;;;;27.57;16.33;;;9.40;99.90;;;;;;4967173;28;20800;-70
2020/12/16 14:05:17;;;;;;;24.83;15.50;;;9.30;99.90;;;;;;4970832;28;20592;-71
2020/12/16 14:08:02;;;;;;;34.80;18.80;;;9.30;99.90;;;;;;4979983;28;20684;-70